createdAt,value
2022-10-25T00:01:31.700Z,96110.49
2022-10-25T00:03:59.982Z,96110.02
2022-10-25T00:06:28.033Z,96106.73
2022-10-25T00:08:56.048Z,96104.36
2022-10-25T00:11:28.084Z,96111.52
2022-10-25T00:13:58.865Z,96110.78
2022-10-25T00:16:29.941Z,96117.41
2022-10-25T00:18:58.010Z,96110.51
2022-10-25T00:21:26.548Z,96106.39
2022-10-25T00:23:54.597Z,96105.86
2022-10-25T00:26:22.750Z,96109.88
2022-10-25T00:28:54.501Z,96114.09
2022-10-25T00:31:23.798Z,96112.91
2022-10-25T00:33:52.132Z,96111.44
2022-10-25T00:36:23.369Z,96110.04
2022-10-25T00:38:51.818Z,96111.37
2022-10-25T00:41:23.540Z,96108.98
2022-10-25T00:43:54.513Z,96108.17
2022-10-25T00:46:28.188Z,96109.74
2022-10-25T00:49:12.912Z,96115.46
2022-10-25T00:51:51.677Z,96113.30
2022-10-25T00:54:29.376Z,96122.61
2022-10-25T00:57:01.266Z,96128.55
2022-10-25T00:59:29.671Z,96124.16
2022-10-25T01:01:58.328Z,96121.16
2022-10-25T01:04:29.009Z,96117.59
2022-10-25T01:06:57.611Z,96119.70
2022-10-25T01:09:28.769Z,96121.80
2022-10-25T01:11:57.068Z,96117.34
2022-10-25T01:14:27.047Z,96116.31
2022-10-25T01:17:16.160Z,96115.71
2022-10-25T01:20:22.925Z,96110.38
2022-10-25T01:23:40.543Z,96108.27
2022-10-25T01:26:53.993Z,96114.68
2022-10-25T01:29:49.301Z,96111.52
2022-10-25T01:32:32.554Z,96107.92
2022-10-25T01:35:09.478Z,96112.81
2022-10-25T01:38:15.925Z,96110.62
2022-10-25T01:41:00.210Z,96109.63
2022-10-25T01:43:39.016Z,96107.48
2022-10-25T01:46:26.178Z,96105.70
2022-10-25T01:49:07.992Z,96105.84
2022-10-25T01:51:37.098Z,96104.94
2022-10-25T01:54:26.502Z,96099.93
2022-10-25T01:57:12.710Z,96093.83
2022-10-25T01:59:56.291Z,96094.11
2022-10-25T02:03:03.546Z,96090.68
2022-10-25T02:05:50.336Z,96096.77
2022-10-25T02:08:18.388Z,96104.80
2022-10-25T02:11:01.421Z,96104.56
2022-10-25T02:13:52.388Z,96100.52
2022-10-25T02:16:31.116Z,96103.30
2022-10-25T02:19:05.662Z,96105.58
2022-10-25T02:21:36.543Z,96109.35
2022-10-25T02:24:13.867Z,96113.52
2022-10-25T02:26:44.788Z,96115.45
2022-10-25T02:29:14.744Z,96109.35
2022-10-25T02:31:43.886Z,96113.77
2022-10-25T02:34:12.085Z,96118.29
2022-10-25T02:36:40.099Z,96123.50
2022-10-25T02:39:08.840Z,96118.48
2022-10-25T02:41:36.845Z,96120.59
2022-10-25T02:44:04.893Z,96116.52
2022-10-25T02:46:32.883Z,96115.67
2022-10-25T02:49:00.818Z,96113.34
2022-10-25T02:51:28.905Z,96114.96
2022-10-25T02:53:57.012Z,96116.11
2022-10-25T02:56:25.090Z,96114.94
2022-10-25T02:58:56.762Z,96113.71
2022-10-25T03:01:26.479Z,96112.68
2022-10-25T03:03:54.805Z,96103.71
2022-10-25T03:06:22.809Z,96102.94
2022-10-25T03:08:50.777Z,96099.89
2022-10-25T03:11:18.824Z,96096.52
2022-10-25T03:13:46.907Z,96094.72
2022-10-25T03:16:14.854Z,96095.84
2022-10-25T03:18:42.799Z,96098.04
2022-10-25T03:21:10.776Z,96102.59
2022-10-25T03:23:38.734Z,96104.02
2022-10-25T03:26:06.759Z,96108.98
2022-10-25T03:28:34.843Z,96109.23
2022-10-25T03:31:02.794Z,96111.50
2022-10-25T03:36:04.053Z,96111.41
2022-10-25T03:38:32.167Z,96114.34
2022-10-25T03:41:00.170Z,96114.42
2022-10-25T03:43:28.383Z,96116.89
2022-10-25T03:45:56.836Z,96123.59
2022-10-25T03:48:25.003Z,96121.99
2022-10-25T03:50:54.365Z,96125.63
2022-10-25T03:53:22.905Z,96128.87
2022-10-25T03:55:50.964Z,96127.41
2022-10-25T03:58:19.916Z,96131.10
2022-10-25T04:00:48.320Z,96134.42
2022-10-25T04:03:16.723Z,96133.41
2022-10-25T04:05:44.772Z,96132.91
2022-10-25T04:08:12.944Z,96129.04
2022-10-25T04:10:41.007Z,96127.98
2022-10-25T04:13:08.937Z,96130.89
2022-10-25T04:15:38.806Z,96126.67
2022-10-25T04:18:06.716Z,96130.86
2022-10-25T04:20:34.748Z,96131.95
2022-10-25T04:23:02.785Z,96136.02
2022-10-25T04:25:30.787Z,96135.84
2022-10-25T04:27:59.933Z,96133.33
2022-10-25T04:30:28.091Z,96129.98
2022-10-25T04:32:58.164Z,96135.57
2022-10-25T04:35:26.069Z,96140.02
2022-10-25T04:37:57.419Z,96142.77
2022-10-25T04:40:25.543Z,96151.57
2022-10-25T04:42:53.484Z,96151.55
2022-10-25T04:45:21.370Z,96154.21
2022-10-25T04:47:49.467Z,96149.71
2022-10-25T04:50:17.536Z,96145.89
2022-10-25T04:52:46.052Z,96145.92
2022-10-25T04:55:14.279Z,96143.48
2022-10-25T04:57:42.335Z,96147.57
2022-10-25T05:00:11.160Z,96151.96
2022-10-25T05:02:39.234Z,96149.52
2022-10-25T05:05:07.609Z,96150.70
2022-10-25T05:07:35.565Z,96145.09
2022-10-25T05:10:04.080Z,96145.92
2022-10-25T05:12:32.096Z,96145.39
2022-10-25T05:15:00.000Z,96145.06
2022-10-25T05:17:28.944Z,96146.84
2022-10-25T05:19:56.889Z,96153.80
2022-10-25T05:22:25.800Z,96152.83
2022-10-25T05:24:54.367Z,96150.71
2022-10-25T05:27:22.348Z,96156.14
2022-10-25T05:29:50.274Z,96154.33
2022-10-25T05:32:18.266Z,96148.79
2022-10-25T05:34:46.247Z,96149.77
2022-10-25T05:37:14.304Z,96144.52
2022-10-25T05:39:42.217Z,96144.10
2022-10-25T05:42:10.137Z,96144.57
2022-10-25T05:44:38.347Z,96149.66
2022-10-25T05:47:06.632Z,96152.25
2022-10-25T05:49:39.646Z,96156.89
2022-10-25T05:52:07.673Z,96166.19
2022-10-25T05:54:35.851Z,96173.02
2022-10-25T05:57:04.032Z,96179.00
2022-10-25T05:59:32.023Z,96177.52
2022-10-25T06:02:00.131Z,96177.21
2022-10-25T06:04:28.299Z,96176.30
2022-10-25T06:06:58.069Z,96178.85
2022-10-25T06:09:26.117Z,96181.48
2022-10-25T06:11:54.184Z,96184.36
2022-10-25T06:14:22.098Z,96184.58
2022-10-25T06:16:50.085Z,96189.83
2022-10-25T06:19:18.007Z,96193.02
2022-10-25T06:21:46.928Z,96190.83
2022-10-25T06:24:15.017Z,96188.13
2022-10-25T06:26:43.099Z,96189.94
2022-10-25T06:29:11.128Z,96193.80
2022-10-25T06:31:41.760Z,96197.00
2022-10-25T06:34:09.814Z,96203.42
2022-10-25T06:36:37.831Z,96211.00
2022-10-25T06:39:08.746Z,96214.17
2022-10-25T06:41:50.147Z,96218.70
2022-10-25T06:44:26.561Z,96219.38
2022-10-25T06:49:42.784Z,96225.66
2022-10-25T06:52:10.847Z,96225.84
2022-10-25T06:54:38.878Z,96222.06
2022-10-25T06:57:06.902Z,96224.66
2022-10-25T06:59:34.933Z,96223.30
2022-10-25T07:02:03.107Z,96228.94
2022-10-25T07:04:32.745Z,96228.46
2022-10-25T07:07:01.502Z,96232.77
2022-10-25T07:09:29.832Z,96236.81
2022-10-25T07:11:57.899Z,96240.41
2022-10-25T07:14:25.837Z,96241.32
2022-10-25T07:16:53.839Z,96243.91
2022-10-25T07:19:23.895Z,96247.85
2022-10-25T07:21:51.924Z,96256.77
2022-10-25T07:24:20.015Z,96258.72
2022-10-25T07:26:48.135Z,96260.92
2022-10-25T07:29:16.146Z,96267.74
2022-10-25T07:31:44.529Z,96269.22
2022-10-25T07:34:14.688Z,96266.33
2022-10-25T07:36:43.092Z,96270.05
2022-10-25T07:39:11.153Z,96271.89
2022-10-25T07:41:39.116Z,96273.95
2022-10-25T07:44:08.755Z,96270.48
2022-10-25T07:46:38.712Z,96263.48
2022-10-25T07:49:06.627Z,96255.79
2022-10-25T07:51:34.640Z,96250.02
2022-10-25T07:54:02.738Z,96241.79
2022-10-25T07:56:30.818Z,96237.73
2022-10-25T07:58:59.125Z,96236.20
2022-10-25T08:01:28.689Z,96230.34
2022-10-25T08:03:57.118Z,96225.58
2022-10-25T08:06:26.384Z,96219.48
2022-10-25T08:08:54.437Z,96215.81
2022-10-25T08:11:22.506Z,96210.58
2022-10-25T08:13:50.799Z,96203.75
2022-10-25T08:16:19.216Z,96206.31
2022-10-25T08:18:47.373Z,96205.80
2022-10-25T08:21:16.355Z,96204.81
2022-10-25T08:23:44.557Z,96206.05
2022-10-25T08:26:12.708Z,96208.14
2022-10-25T08:28:41.359Z,96209.02
2022-10-25T08:31:10.452Z,96205.27
2022-10-25T08:33:38.633Z,96209.14
2022-10-25T08:36:07.027Z,96211.19
2022-10-25T08:38:35.099Z,96213.42
2022-10-25T08:41:07.273Z,96214.05
2022-10-25T08:43:35.338Z,96216.32
2022-10-25T08:46:16.234Z,96219.95
2022-10-25T08:48:49.242Z,96224.13
2022-10-25T08:51:33.938Z,96226.99
2022-10-25T08:54:10.737Z,96226.02
2022-10-25T08:56:46.667Z,96232.58
2022-10-25T08:59:30.455Z,96233.52
2022-10-25T09:02:00.269Z,96237.63
2022-10-25T09:04:30.518Z,96239.88
2022-10-25T09:07:27.264Z,96242.95
2022-10-25T09:10:06.935Z,96248.08
2022-10-25T09:13:36.558Z,96252.68
2022-10-25T09:16:13.036Z,96264.21
2022-10-25T09:18:46.206Z,96269.10
2022-10-25T09:21:23.019Z,96273.37
2022-10-25T09:24:01.666Z,96275.41
2022-10-25T09:26:39.049Z,96279.70
2022-10-25T09:29:22.350Z,96283.56
2022-10-25T09:31:55.348Z,96287.09
2022-10-25T09:34:24.979Z,96285.22
2022-10-25T09:37:02.193Z,96280.42
2022-10-25T09:39:41.762Z,96279.52
2022-10-25T09:42:25.047Z,96275.95
2022-10-25T09:45:02.049Z,96279.96
2022-10-25T09:47:33.046Z,96279.08
2022-10-25T09:50:32.212Z,96273.00
2022-10-25T09:53:16.657Z,96271.42
2022-10-25T09:55:57.321Z,96269.95
2022-10-25T09:58:34.086Z,96271.34
2022-10-25T10:01:09.122Z,96270.38
2022-10-25T10:03:37.900Z,96266.85
2022-10-25T10:06:18.832Z,96265.61
2022-10-25T10:08:53.184Z,96263.09
2022-10-25T10:11:21.625Z,96256.52
2022-10-25T10:13:57.501Z,96258.86
2022-10-25T10:16:44.180Z,96264.44
2022-10-25T10:19:19.732Z,96268.54
2022-10-25T10:21:51.758Z,96269.59
2022-10-25T10:24:20.901Z,96269.69
2022-10-25T10:26:55.763Z,96263.83
2022-10-25T10:29:28.717Z,96267.07
2022-10-25T10:32:00.695Z,96267.29
2022-10-25T10:34:34.635Z,96269.25
2022-10-25T10:37:12.821Z,96261.96
2022-10-25T10:40:07.144Z,96263.84
2022-10-25T10:42:37.972Z,96264.11
2022-10-25T10:45:08.060Z,96266.53
2022-10-25T10:47:55.796Z,96261.26
2022-10-25T10:50:24.538Z,96265.21
2022-10-25T10:53:01.049Z,96263.70
2022-10-25T10:55:34.712Z,96264.96
2022-10-25T10:58:16.593Z,96267.70
2022-10-25T11:01:29.684Z,96270.30
2022-10-25T11:04:00.753Z,96269.61
2022-10-25T11:06:34.246Z,96271.54
2022-10-25T11:09:12.963Z,96271.98
2022-10-25T11:11:41.380Z,96266.70
2022-10-25T11:14:17.161Z,96262.93
2022-10-25T11:17:28.502Z,96264.91
2022-10-25T11:20:20.984Z,96268.60
2022-10-25T11:22:54.894Z,96263.87
2022-10-25T11:25:35.934Z,96258.95
2022-10-25T11:28:22.438Z,96264.47
2022-10-25T11:31:08.400Z,96267.59
2022-10-25T11:33:43.625Z,96271.14
2022-10-25T11:36:49.212Z,96274.63
2022-10-25T11:39:48.497Z,96271.92
2022-10-25T11:43:02.565Z,96271.98
2022-10-25T11:45:48.695Z,96276.52
2022-10-25T11:48:35.721Z,96276.02
2022-10-25T11:51:44.978Z,96274.92
2022-10-25T11:54:19.005Z,96270.29
2022-10-25T11:57:29.926Z,96268.92
2022-10-25T12:00:24.368Z,96268.39
2022-10-25T12:02:55.122Z,96262.79
2022-10-25T12:05:28.840Z,96262.89
2022-10-25T12:08:34.167Z,96264.81
2022-10-25T12:11:13.732Z,96266.30
2022-10-25T12:13:49.463Z,96266.92
2022-10-25T12:16:20.230Z,96268.61
2022-10-25T12:18:51.641Z,96267.23
2022-10-25T12:21:28.121Z,96268.32
2022-10-25T12:23:57.322Z,96269.36
2022-10-25T12:26:36.158Z,96275.49
2022-10-25T12:29:12.337Z,96268.31
2022-10-25T12:31:52.282Z,96265.84
2022-10-25T12:34:40.530Z,96266.36
2022-10-25T12:37:19.669Z,96266.26
2022-10-25T12:39:48.151Z,96264.33
2022-10-25T12:42:26.053Z,96263.61
2022-10-25T12:45:00.241Z,96264.97
2022-10-25T12:47:43.341Z,96264.89
2022-10-25T12:50:24.948Z,96269.46
2022-10-25T12:53:30.241Z,96268.63
2022-10-25T12:56:02.937Z,96271.13
2022-10-25T12:58:45.966Z,96269.52
2022-10-25T13:01:13.998Z,96269.00
2022-10-25T13:04:00.249Z,96270.70
2022-10-25T13:06:28.223Z,96267.77
2022-10-25T13:09:04.353Z,96265.08
2022-10-25T13:11:47.649Z,96265.73
2022-10-25T13:14:24.894Z,96260.91
2022-10-25T13:16:53.201Z,96260.20
2022-10-25T13:19:30.658Z,96260.65
2022-10-25T13:22:30.657Z,96261.05
2022-10-25T13:25:24.306Z,96263.81
2022-10-25T13:28:10.897Z,96271.23
2022-10-25T13:30:40.397Z,96273.25
2022-10-25T13:33:24.595Z,96271.88
2022-10-25T13:35:53.114Z,96268.23
2022-10-25T13:38:23.484Z,96265.13
2022-10-25T13:41:10.366Z,96267.04
2022-10-25T13:44:01.949Z,96265.06
2022-10-25T13:46:41.462Z,96270.88
2022-10-25T13:49:43.051Z,96273.52
2022-10-25T13:52:57.855Z,96279.33
2022-10-25T13:55:38.207Z,96278.48
2022-10-25T13:58:31.295Z,96287.59
2022-10-25T14:01:21.721Z,96292.02
2022-10-25T14:03:53.277Z,96295.55
2022-10-25T14:06:30.308Z,96302.27
2022-10-25T14:09:13.242Z,96303.96
2022-10-25T14:11:51.708Z,96303.13
2022-10-25T14:14:29.907Z,96306.16
2022-10-25T14:17:22.778Z,96308.61
2022-10-25T14:19:57.758Z,96309.18
2022-10-25T14:22:34.933Z,96305.66
2022-10-25T14:25:14.382Z,96308.83
2022-10-25T14:27:42.513Z,96312.16
2022-10-25T14:30:24.370Z,96314.30
2022-10-25T14:32:55.731Z,96323.27
2022-10-25T14:35:33.959Z,96324.44
2022-10-25T14:38:04.085Z,96324.50
2022-10-25T14:40:32.388Z,96318.05
2022-10-25T14:43:39.615Z,96315.86
2022-10-25T14:46:10.503Z,96308.20
2022-10-25T14:48:38.612Z,96307.14
2022-10-25T14:51:13.718Z,96301.77
2022-10-25T14:53:58.036Z,96297.75
2022-10-25T14:56:28.472Z,96294.29
2022-10-25T14:58:57.175Z,96299.31
2022-10-25T15:01:26.052Z,96307.75
2022-10-25T15:03:58.276Z,96316.48
2022-10-25T15:06:29.985Z,96319.09
2022-10-25T15:09:30.057Z,96320.84
2022-10-25T15:12:10.178Z,96322.35
2022-10-25T15:14:38.868Z,96321.19
2022-10-25T15:17:21.742Z,96321.81
2022-10-25T15:20:14.376Z,96328.57
2022-10-25T15:22:47.627Z,96334.52
2022-10-25T15:25:21.706Z,96335.40
2022-10-25T15:27:52.657Z,96334.85
2022-10-25T15:30:55.950Z,96339.14
2022-10-25T15:33:32.262Z,96340.11
2022-10-25T15:36:03.237Z,96338.31
2022-10-25T15:38:54.349Z,96341.35
2022-10-25T15:41:22.699Z,96336.34
2022-10-25T15:43:52.160Z,96338.83
2022-10-25T15:46:31.132Z,96343.09
2022-10-25T15:49:01.113Z,96346.27
2022-10-25T15:51:32.337Z,96353.14
2022-10-25T15:54:00.482Z,96353.67
2022-10-25T15:56:29.326Z,96357.17
2022-10-25T15:59:00.379Z,96356.84
2022-10-25T16:01:28.783Z,96361.20
2022-10-25T16:03:56.892Z,96357.87
2022-10-25T16:06:24.972Z,96353.50
2022-10-25T16:08:53.397Z,96356.65
2022-10-25T16:11:21.935Z,96357.52
2022-10-25T16:13:53.240Z,96355.95
2022-10-25T16:16:44.150Z,96353.48
2022-10-25T16:19:26.484Z,96352.73
2022-10-25T16:21:54.519Z,96354.33
2022-10-25T16:24:22.803Z,96352.92
2022-10-25T16:26:51.321Z,96357.07
2022-10-25T16:29:21.919Z,96361.98
2022-10-25T16:31:51.084Z,96363.04
2022-10-25T16:34:19.898Z,96366.55
2022-10-25T16:36:50.585Z,96365.02
2022-10-25T16:39:18.680Z,96366.02
2022-10-25T16:41:47.996Z,96365.63
2022-10-25T16:44:19.765Z,96371.98
2022-10-25T16:46:47.793Z,96373.67
2022-10-25T16:49:16.101Z,96370.98
2022-10-25T16:51:45.016Z,96377.48
2022-10-25T16:54:15.589Z,96377.11
2022-10-25T16:56:44.265Z,96374.67
2022-10-25T16:59:12.723Z,96372.84
2022-10-25T17:01:44.534Z,96372.98
2022-10-25T17:04:15.027Z,96376.14
2022-10-25T17:06:43.499Z,96378.27
2022-10-25T17:09:12.144Z,96382.11
2022-10-25T17:11:41.139Z,96377.39
2022-10-25T17:14:09.953Z,96377.32
2022-10-25T17:16:44.615Z,96382.16
2022-10-25T17:19:14.447Z,96387.16
2022-10-25T17:21:43.174Z,96385.52
2022-10-25T17:24:11.594Z,96389.05
2022-10-25T17:26:39.583Z,96391.21
2022-10-25T17:29:08.010Z,96387.77
2022-10-25T17:31:36.179Z,96389.63
2022-10-25T17:34:04.314Z,96388.02
2022-10-25T17:36:32.771Z,96385.31
2022-10-25T17:39:00.952Z,96387.93
2022-10-25T17:41:28.995Z,96388.37
2022-10-25T17:43:57.917Z,96386.94
2022-10-25T17:46:30.803Z,96389.36
2022-10-25T17:49:06.915Z,96394.48
2022-10-25T17:51:36.115Z,96390.73
2022-10-25T17:54:04.388Z,96394.55
2022-10-25T17:56:32.568Z,96399.05
2022-10-25T17:59:04.301Z,96399.98
2022-10-25T18:01:35.833Z,96402.00
2022-10-25T18:04:04.593Z,96402.48
2022-10-25T18:06:32.682Z,96406.10
2022-10-25T18:09:03.200Z,96415.57
2022-10-25T18:11:31.633Z,96412.91
2022-10-25T18:14:01.977Z,96413.63
2022-10-25T18:16:31.550Z,96419.03
2022-10-25T18:19:02.774Z,96424.09
2022-10-25T18:21:32.048Z,96428.17
2022-10-25T18:24:05.227Z,96425.20
2022-10-25T18:26:35.359Z,96419.92
2022-10-25T18:29:03.745Z,96418.42
2022-10-25T18:31:31.841Z,96415.73
2022-10-25T18:34:03.507Z,96414.70
2022-10-25T18:36:31.814Z,96416.96
2022-10-25T18:38:59.861Z,96415.73
2022-10-25T18:41:31.177Z,96418.48
2022-10-25T18:44:00.142Z,96417.04
2022-10-25T18:46:30.935Z,96417.23
2022-10-25T18:48:59.448Z,96416.87
2022-10-25T18:51:32.316Z,96419.05
2022-10-25T18:54:02.362Z,96421.42
2022-10-25T18:56:32.686Z,96425.70
2022-10-25T18:59:00.812Z,96428.74
2022-10-25T19:01:32.809Z,96434.52
2022-10-25T19:04:03.901Z,96436.77
2022-10-25T19:06:32.800Z,96438.50
2022-10-25T19:09:03.062Z,96437.50
2022-10-25T19:11:33.029Z,96441.83
2022-10-25T19:14:01.532Z,96443.13
2022-10-25T19:16:29.951Z,96445.51
2022-10-25T19:19:02.266Z,96448.70
2022-10-25T19:21:30.349Z,96450.95
2022-10-25T19:23:58.503Z,96452.70
2022-10-25T19:26:27.136Z,96455.70
2022-10-25T19:29:00.494Z,96455.31
2022-10-25T19:31:29.171Z,96454.49
2022-10-25T19:34:00.533Z,96456.77
2022-10-25T19:36:29.763Z,96456.67
2022-10-25T19:39:01.794Z,96458.05
2022-10-25T19:41:29.984Z,96460.81
2022-10-25T19:43:59.776Z,96459.98
2022-10-25T19:46:28.028Z,96463.05
2022-10-25T19:48:56.581Z,96459.67
2022-10-25T19:51:24.597Z,96461.10
2022-10-25T19:53:52.576Z,96461.00
2022-10-25T19:56:22.288Z,96459.01
2022-10-25T19:58:50.935Z,96454.50
2022-10-25T20:01:24.420Z,96454.56
2022-10-25T20:03:55.541Z,96456.02
2022-10-25T20:06:27.022Z,96461.95
2022-10-25T20:08:56.549Z,96461.55
2022-10-25T20:11:27.996Z,96457.62
2022-10-25T20:14:01.928Z,96458.19
2022-10-25T20:16:31.609Z,96458.19
2022-10-25T20:19:01.697Z,96465.59
2022-10-25T20:21:34.155Z,96464.12
2022-10-25T20:24:06.021Z,96465.63
2022-10-25T20:26:36.419Z,96466.55
2022-10-25T20:29:07.633Z,96467.77
2022-10-25T20:31:35.621Z,96475.22
2022-10-25T20:34:03.841Z,96476.82
2022-10-25T20:36:32.203Z,96475.16
2022-10-25T20:39:00.119Z,96472.58
2022-10-25T20:41:30.102Z,96471.78
2022-10-25T20:44:01.932Z,96469.27
2022-10-25T20:46:30.746Z,96470.67
2022-10-25T20:49:00.454Z,96468.54
2022-10-25T20:51:28.536Z,96473.06
2022-10-25T20:53:57.079Z,96472.94
2022-10-25T20:56:25.074Z,96476.98
2022-10-25T20:58:53.034Z,96478.76
2022-10-25T21:01:21.222Z,96478.92
2022-10-25T21:03:49.353Z,96479.94
2022-10-25T21:06:17.411Z,96483.05
2022-10-25T21:08:45.410Z,96485.63
2022-10-25T21:11:14.221Z,96486.08
2022-10-25T21:13:43.415Z,96487.17
2022-10-25T21:16:13.737Z,96483.65
2022-10-25T21:18:43.045Z,96480.77
2022-10-25T21:21:18.101Z,96479.52
2022-10-25T21:23:48.007Z,96474.86
2022-10-25T21:26:16.349Z,96475.68
2022-10-25T21:28:44.414Z,96480.42
2022-10-25T21:31:15.168Z,96483.23
2022-10-25T21:33:49.942Z,96482.23
2022-10-25T21:36:20.695Z,96484.80
2022-10-25T21:38:48.815Z,96488.92
2022-10-25T21:41:20.984Z,96490.98
2022-10-25T21:43:51.014Z,96495.79
2022-10-25T21:46:21.350Z,96496.30
2022-10-25T21:48:52.802Z,96491.75
2022-10-25T21:51:24.496Z,96490.89
2022-10-25T21:53:53.959Z,96488.03
2022-10-25T21:56:31.217Z,96488.76
2022-10-25T21:59:01.018Z,96492.26
2022-10-25T22:01:30.448Z,96492.13
2022-10-25T22:03:58.971Z,96490.15
2022-10-25T22:06:27.638Z,96493.11
2022-10-25T22:08:56.462Z,96488.52
2022-10-25T22:11:27.616Z,96492.38
2022-10-25T22:14:14.303Z,96494.73
2022-10-25T22:16:42.415Z,96493.41
2022-10-25T22:19:15.936Z,96491.46
2022-10-25T22:21:45.119Z,96495.25
2022-10-25T22:24:13.280Z,96493.15
2022-10-25T22:26:43.813Z,96496.08
2022-10-25T22:29:13.807Z,96493.45
2022-10-25T22:31:42.053Z,96492.95
2022-10-25T22:34:10.536Z,96491.92
2022-10-25T22:36:41.111Z,96493.38
2022-10-25T22:39:10.334Z,96495.52
2022-10-25T22:41:38.724Z,96494.37
2022-10-25T22:44:06.681Z,96498.83
2022-10-25T22:46:36.034Z,96501.49
2022-10-25T22:49:06.645Z,96502.39
2022-10-25T22:51:35.867Z,96499.40
2022-10-25T22:54:04.211Z,96496.73
2022-10-25T22:56:32.520Z,96501.34
2022-10-25T22:59:02.821Z,96497.67
2022-10-25T23:01:34.171Z,96497.05
2022-10-25T23:04:05.282Z,96499.68
2022-10-25T23:06:36.220Z,96499.17
2022-10-25T23:09:07.258Z,96499.47
2022-10-25T23:11:36.871Z,96502.23
2022-10-25T23:14:05.665Z,96505.05
2022-10-25T23:16:33.634Z,96506.01
2022-10-25T23:19:02.532Z,96501.23
2022-10-25T23:21:31.135Z,96503.52
2022-10-25T23:24:00.338Z,96503.22
2022-10-25T23:26:32.241Z,96508.79
2022-10-25T23:29:00.845Z,96505.87
2022-10-25T23:31:30.438Z,96506.00
2022-10-25T23:34:00.098Z,96507.25
2022-10-25T23:36:37.484Z,96508.45
2022-10-25T23:39:08.069Z,96508.36
2022-10-25T23:41:36.582Z,96509.73
2022-10-25T23:44:04.800Z,96514.66
2022-10-25T23:46:32.755Z,96517.72
2022-10-25T23:49:00.810Z,96520.41
2022-10-25T23:51:28.834Z,96519.41
2022-10-25T23:53:56.756Z,96525.84
2022-10-25T23:56:24.747Z,96524.98
2022-10-25T23:58:53.836Z,96526.66
